Terminal Aerodrome Forecast
Issued by NWS

Home | Current Version | Previous Version | Graphics & Text | Print | Product List | Glossary On
Versions: 1 2 3 4 5 6 7 8 9 10 11 12 13 14 15 16 17 18 19
658
FTUS43 KIWX 032339
TAFSBN
TAF
KSBN 032339Z 0400/0424 29003KT P6SM OVC025
     FM041400 14006KT 6SM -SN BR OVC025
     FM041900 15008KT 2SM -RASN BR OVC020
     FM042000 15005KT 1 1/2SM -SN BR OVC010=

USA.gov is the U.S. government's official web portal to all federal, state and local government web resources and services.